sensor_id;sensor_type;location;lat;lon;timestamp;pressure;altitude;pressure_sealevel;temperature;humidity
7832;BME280;3961;42.058;25.586;2023-01-29T00:01:36;62797.78;;;5.20;100.00
7832;BME280;3961;42.058;25.586;2023-01-29T00:04:02;62776.78;;;5.03;100.00
7832;BME280;3961;42.058;25.586;2023-01-29T00:06:27;62789.97;;;5.15;100.00
7832;BME280;3961;42.058;25.586;2023-01-29T00:08:53;62784.81;;;5.11;100.00
7832;BME280;3961;42.058;25.586;2023-01-29T00:11:18;62789.06;;;5.17;100.00
7832;BME280;3961;42.058;25.586;2023-01-29T00:13:50;62799.97;;;5.26;100.00
7832;BME280;3961;42.058;25.586;2023-01-29T00:16:15;62780.78;;;5.07;100.00
7832;BME280;3961;42.058;25.586;2023-01-29T00:18:42;62759.53;;;4.88;100.00
7832;BME280;3961;42.058;25.586;2023-01-29T00:21:10;62747.19;;;4.80;100.00
7832;BME280;3961;42.058;25.586;2023-01-29T00:23:35;62777.91;;;5.04;100.00
7832;BME280;3961;42.058;25.586;2023-01-29T00:26:01;62769.22;;;5.01;100.00
7832;BME280;3961;42.058;25.586;2023-01-29T00:28:27;62748.34;;;4.81;100.00
7832;BME280;3961;42.058;25.586;2023-01-29T00:30:53;62765.53;;;4.96;100.00
7832;BME280;3961;42.058;25.586;2023-01-29T00:33:18;62778.97;;;5.10;100.00
7832;BME280;3961;42.058;25.586;2023-01-29T00:35:44;62799.13;;;5.23;100.00
7832;BME280;3961;42.058;25.586;2023-01-29T00:38:09;62788.25;;;5.14;100.00
7832;BME280;3961;42.058;25.586;2023-01-29T00:40:38;62800.41;;;5.20;100.00
7832;BME280;3961;42.058;25.586;2023-01-29T00:43:23;62787.34;;;5.15;100.00
7832;BME280;3961;42.058;25.586;2023-01-29T00:46:07;62765.53;;;4.96;100.00
7832;BME280;3961;42.058;25.586;2023-01-29T00:48:33;62774.81;;;4.99;100.00
7832;BME280;3961;42.058;25.586;2023-01-29T00:51:00;62785.38;;;5.11;100.00
7832;BME280;3961;42.058;25.586;2023-01-29T00:53:26;62761.50;;;4.92;100.00
7832;BME280;3961;42.058;25.586;2023-01-29T00:55:52;62739.81;;;4.68;100.00
7832;BME280;3961;42.058;25.586;2023-01-29T00:58:17;62754.66;;;4.86;100.00
7832;BME280;3961;42.058;25.586;2023-01-29T01:00:50;62758.63;;;4.90;100.00
7832;BME280;3961;42.058;25.586;2023-01-29T01:03:16;62771.28;;;5.01;100.00
7832;BME280;3961;42.058;25.586;2023-01-29T01:05:41;62775.88;;;5.05;100.00
7832;BME280;3961;42.058;25.586;2023-01-29T01:08:08;62768.06;;;5.00;100.00
7832;BME280;3961;42.058;25.586;2023-01-29T01:11:01;62772.66;;;5.04;100.00
7832;BME280;3961;42.058;25.586;2023-01-29T01:13:28;62768.06;;;5.00;100.00
7832;BME280;3961;42.058;25.586;2023-01-29T01:15:55;62769.22;;;5.01;100.00
7832;BME280;3961;42.058;25.586;2023-01-29T01:18:20;62762.66;;;4.93;100.00
7832;BME280;3961;42.058;25.586;2023-01-29T01:20:47;62747.28;;;4.75;100.00
7832;BME280;3961;42.058;25.586;2023-01-29T01:23:19;62744.41;;;4.72;100.00
7832;BME280;3961;42.058;25.586;2023-01-29T01:25:44;62739.72;;;4.73;100.00
7832;BME280;3961;42.058;25.586;2023-01-29T01:28:11;62756.34;;;4.88;100.00
7832;BME280;3961;42.058;25.586;2023-01-29T01:30:36;62763.91;;;4.90;100.00
7832;BME280;3961;42.058;25.586;2023-01-29T01:33:02;62751.19;;;4.83;100.00
7832;BME280;3961;42.058;25.586;2023-01-29T01:35:28;62688.09;;;4.27;100.00
7832;BME280;3961;42.058;25.586;2023-01-29T01:37:53;62699.56;;;4.37;100.00
7832;BME280;3961;42.058;25.586;2023-01-29T01:40:21;62710.81;;;4.45;100.00
7832;BME280;3961;42.058;25.586;2023-01-29T01:42:51;62725.03;;;4.62;100.00
7832;BME280;3961;42.058;25.586;2023-01-29T01:45:32;62741.78;;;4.72;100.00
7832;BME280;3961;42.058;25.586;2023-01-29T01:48:20;62703.25;;;4.43;100.00
7832;BME280;3961;42.058;25.586;2023-01-29T01:50:55;62708.75;;;4.46;100.00
7832;BME280;3961;42.058;25.586;2023-01-29T01:55:59;62731.13;;;4.65;100.00
7832;BME280;3961;42.058;25.586;2023-01-29T01:58:31;62746.94;;;4.77;100.00
7832;BME280;3961;42.058;25.586;2023-01-29T02:00:57;62717.44;;;4.49;100.00
7832;BME280;3961;42.058;25.586;2023-01-29T02:03:23;62727.44;;;4.60;100.00
7832;BME280;3961;42.058;25.586;2023-01-29T02:06:09;62729.38;;;4.64;100.00
7832;BME280;3961;42.058;25.586;2023-01-29T02:09:01;62752.91;;;4.85;100.00
7832;BME280;3961;42.058;25.586;2023-01-29T02:11:46;62752.34;;;4.84;100.00
7832;BME280;3961;42.058;25.586;2023-01-29T02:14:11;62754.53;;;4.91;100.00
7832;BME280;3961;42.058;25.586;2023-01-29T02:16:37;62764.06;;;4.97;100.00
7832;BME280;3961;42.058;25.586;2023-01-29T02:19:15;62764.88;;;5.00;100.00
7832;BME280;3961;42.058;25.586;2023-01-29T02:22:02;62767.25;;;4.97;100.00
7832;BME280;3961;42.058;25.586;2023-01-29T02:24:54;62756.69;;;4.86;100.00
7832;BME280;3961;42.058;25.586;2023-01-29T02:27:34;62760.69;;;4.89;100.00
7832;BME280;3961;42.058;25.586;2023-01-29T02:30:27;62751.19;;;4.83;100.00
7832;BME280;3961;42.058;25.586;2023-01-29T02:33:13;62733.41;;;4.67;100.00
7832;BME280;3961;42.058;25.586;2023-01-29T02:35:43;62718.28;;;4.52;100.00
7832;BME280;3961;42.058;25.586;2023-01-29T02:40:58;62688.03;;;4.32;100.00
7832;BME280;3961;42.058;25.586;2023-01-29T02:48:56;62716.78;;;4.53;100.00
7832;BME280;3961;42.058;25.586;2023-01-29T02:51:38;62731.78;;;4.61;100.00
7832;BME280;3961;42.058;25.586;2023-01-29T02:54:18;62707.94;;;4.43;100.00
7832;BME280;3961;42.058;25.586;2023-01-29T02:56:52;62713.00;;;4.52;100.00
7832;BME280;3961;42.058;25.586;2023-01-29T02:59:22;62711.97;;;4.46;100.00
7832;BME280;3961;42.058;25.586;2023-01-29T03:02:01;62699.91;;;4.35;100.00
7832;BME280;3961;42.058;25.586;2023-01-29T03:04:32;62723.66;;;4.59;100.00
7832;BME280;3961;42.058;25.586;2023-01-29T03:07:04;62732.34;;;4.62;100.00
7832;BME280;3961;42.058;25.586;2023-01-29T03:09:43;62743.25;;;4.71;100.00
7832;BME280;3961;42.058;25.586;2023-01-29T03:12:18;62750.97;;;4.81;100.00
7832;BME280;3961;42.058;25.586;2023-01-29T03:14:59;62741.19;;;4.72;100.00
7832;BME280;3961;42.058;25.586;2023-01-29T03:17:57;62741.69;;;4.77;100.00
7832;BME280;3961;42.058;25.586;2023-01-29T03:20:29;62751.53;;;4.81;100.00
7832;BME280;3961;42.058;25.586;2023-01-29T03:23:02;62747.75;;;4.80;100.00
7832;BME280;3961;42.058;25.586;2023-01-29T03:25:31;62754.41;;;4.84;100.00
7832;BME280;3961;42.058;25.586;2023-01-29T03:28:20;62754.66;;;4.86;100.00
7832;BME280;3961;42.058;25.586;2023-01-29T03:31:07;62756.13;;;4.85;100.00
7832;BME280;3961;42.058;25.586;2023-01-29T03:34:18;62716.78;;;4.53;100.00
7832;BME280;3961;42.058;25.586;2023-01-29T03:37:01;62743.75;;;4.77;100.00
7832;BME280;3961;42.058;25.586;2023-01-29T03:39:28;62745.22;;;4.76;100.00
7832;BME280;3961;42.058;25.586;2023-01-29T03:42:14;62750.63;;;4.83;100.00
7832;BME280;3961;42.058;25.586;2023-01-29T03:47:21;62724.56;;;4.57;100.00
7832;BME280;3961;42.058;25.586;2023-01-29T03:50:02;62713.91;;;4.50;100.00
7832;BME280;3961;42.058;25.586;2023-01-29T03:52:47;62708.19;;;4.45;100.00
7832;BME280;3961;42.058;25.586;2023-01-29T03:55:40;62722.50;;;4.58;100.00
7832;BME280;3961;42.058;25.586;2023-01-29T03:58:12;62713.09;;;4.47;100.00
7832;BME280;3961;42.058;25.586;2023-01-29T04:00:53;62696.72;;;4.35;100.00
7832;BME280;3961;42.058;25.586;2023-01-29T04:03:28;62695.00;;;4.33;100.00
7832;BME280;3961;42.058;25.586;2023-01-29T04:11:28;62699.09;;;4.32;100.00
7832;BME280;3961;42.058;25.586;2023-01-29T04:13:55;62684.44;;;4.22;100.00
7832;BME280;3961;42.058;25.586;2023-01-29T04:16:26;62693.03;;;4.29;100.00
7832;BME280;3961;42.058;25.586;2023-01-29T04:18:52;62709.09;;;4.44;100.00
7832;BME280;3961;42.058;25.586;2023-01-29T04:21:19;62703.34;;;4.38;100.00
7832;BME280;3961;42.058;25.586;2023-01-29T04:23:44;62688.91;;;4.30;100.00
7832;BME280;3961;42.058;25.586;2023-01-29T04:29:13;62684.66;;;4.24;100.00
7832;BME280;3961;42.058;25.586;2023-01-29T04:32:01;62676.41;;;4.15;100.00
7832;BME280;3961;42.058;25.586;2023-01-29T04:40:30;62691.78;;;4.33;100.00
7832;BME280;3961;42.058;25.586;2023-01-29T04:43:37;62668.28;;;4.12;100.00
7832;BME280;3961;42.058;25.586;2023-01-29T04:46:28;62640.22;;;3.87;100.00
7832;BME280;3961;42.058;25.586;2023-01-29T04:51:44;62677.22;;;4.18;100.00
7832;BME280;3961;42.058;25.586;2023-01-29T04:54:21;62648.66;;;3.88;100.00
7832;BME280;3961;42.058;25.586;2023-01-29T04:59:37;62653.72;;;3.97;100.00
7832;BME280;3961;42.058;25.586;2023-01-29T05:02:06;62655.75;;;3.96;100.00
7832;BME280;3961;42.058;25.586;2023-01-29T05:04:34;62637.13;;;3.82;100.00
7832;BME280;3961;42.058;25.586;2023-01-29T05:07:05;62647.41;;;3.91;100.00
7832;BME280;3961;42.058;25.586;2023-01-29T05:09:35;62640.63;;;3.81;100.00
7832;BME280;3961;42.058;25.586;2023-01-29T05:12:03;62617.63;;;3.65;100.00
7832;BME280;3961;42.058;25.586;2023-01-29T05:14:32;62611.66;;;3.57;100.00
7832;BME280;3961;42.058;25.586;2023-01-29T05:17:02;62622.22;;;3.69;100.00
7832;BME280;3961;42.058;25.586;2023-01-29T05:19:29;62609.25;;;3.60;100.00
7832;BME280;3961;42.058;25.586;2023-01-29T05:21:55;62638.84;;;3.84;100.00
7832;BME280;3961;42.058;25.586;2023-01-29T05:24:23;62615.91;;;3.63;100.00
7832;BME280;3961;42.058;25.586;2023-01-29T05:26:51;62625.66;;;3.72;100.00
7832;BME280;3961;42.058;25.586;2023-01-29T05:29:38;62624.25;;;3.68;100.00
7832;BME280;3961;42.058;25.586;2023-01-29T05:32:06;62600.78;;;3.48;100.00
7832;BME280;3961;42.058;25.586;2023-01-29T05:34:31;62614.75;;;3.62;100.00
7832;BME280;3961;42.058;25.586;2023-01-29T05:36:57;62597.91;;;3.45;100.00
7832;BME280;3961;42.058;25.586;2023-01-29T05:39:22;62606.19;;;3.55;100.00
7832;BME280;3961;42.058;25.586;2023-01-29T05:41:48;62588.41;;;3.39;100.00
7832;BME280;3961;42.058;25.586;2023-01-29T05:44:13;62594.16;;;3.44;100.00
7832;BME280;3961;42.058;25.586;2023-01-29T05:46:38;62597.91;;;3.45;100.00
7832;BME280;3961;42.058;25.586;2023-01-29T05:49:04;62595.03;;;3.43;100.00
7832;BME280;3961;42.058;25.586;2023-01-29T05:51:30;62613.03;;;3.61;100.00
7832;BME280;3961;42.058;25.586;2023-01-29T05:53:56;62609.03;;;3.57;100.00
7832;BME280;3961;42.058;25.586;2023-01-29T05:56:21;62617.38;;;3.62;100.00
7832;BME280;3961;42.058;25.586;2023-01-29T05:58:47;62605.28;;;3.56;100.00
7832;BME280;3961;42.058;25.586;2023-01-29T06:01:15;62583.84;;;3.35;100.00
7832;BME280;3961;42.058;25.586;2023-01-29T06:03:42;62570.44;;;3.21;100.00
7832;BME280;3961;42.058;25.586;2023-01-29T06:06:07;62613.59;;;3.61;100.00
7832;BME280;3961;42.058;25.586;2023-01-29T06:08:33;62632.19;;;3.80;100.00
7832;BME280;3961;42.058;25.586;2023-01-29T06:10:58;62638.59;;;3.81;100.00
7832;BME280;3961;42.058;25.586;2023-01-29T06:13:24;62649.94;;;3.96;100.00
7832;BME280;3961;42.058;25.586;2023-01-29T06:15:49;62652.56;;;3.96;100.00
7832;BME280;3961;42.058;25.586;2023-01-29T06:18:15;62651.75;;;3.93;100.00
7832;BME280;3961;42.058;25.586;2023-01-29T06:20:40;62651.66;;;3.97;100.00
7832;BME280;3961;42.058;25.586;2023-01-29T06:23:06;62669.19;;;4.11;100.00
7832;BME280;3961;42.058;25.586;2023-01-29T06:25:31;62673.06;;;4.07;100.00
7832;BME280;3961;42.058;25.586;2023-01-29T06:27:57;62678.38;;;4.19;100.00
7832;BME280;3961;42.058;25.586;2023-01-29T06:30:22;62682.16;;;4.20;100.00
7832;BME280;3961;42.058;25.586;2023-01-29T06:32:48;62692.22;;;4.26;100.00
7832;BME280;3961;42.058;25.586;2023-01-29T06:35:13;62692.13;;;4.31;100.00
7832;BME280;3961;42.058;25.586;2023-01-29T06:37:39;62703.59;;;4.41;100.00
7832;BME280;3961;42.058;25.586;2023-01-29T06:40:05;62709.34;;;4.46;100.00
7832;BME280;3961;42.058;25.586;2023-01-29T06:42:31;62703.50;;;4.46;100.00
7832;BME280;3961;42.058;25.586;2023-01-29T06:44:56;62712.69;;;4.54;100.00
7832;BME280;3961;42.058;25.586;2023-01-29T06:47:23;62721.72;;;4.55;100.00
7832;BME280;3961;42.058;25.586;2023-01-29T06:49:49;62714.25;;;4.48;100.00
7832;BME280;3961;42.058;25.586;2023-01-29T06:52:14;62723.41;;;4.56;100.00
7832;BME280;3961;42.058;25.586;2023-01-29T06:54:40;62720.00;;;4.53;100.00
7832;BME280;3961;42.058;25.586;2023-01-29T06:57:05;62726.75;;;4.64;100.00
7832;BME280;3961;42.058;25.586;2023-01-29T06:59:31;62720.22;;;4.56;100.00
7832;BME280;3961;42.058;25.586;2023-01-29T07:01:56;62724.22;;;4.59;100.00
7832;BME280;3961;42.058;25.586;2023-01-29T07:04:22;62727.44;;;4.60;100.00
7832;BME280;3961;42.058;25.586;2023-01-29T07:06:47;62724.22;;;4.59;100.00
7832;BME280;3961;42.058;25.586;2023-01-29T07:09:13;62729.72;;;4.62;100.00
7832;BME280;3961;42.058;25.586;2023-01-29T07:11:38;62699.56;;;4.37;100.00
7832;BME280;3961;42.058;25.586;2023-01-29T07:14:05;62709.34;;;4.46;100.00
7832;BME280;3961;42.058;25.586;2023-01-29T07:16:31;62686.13;;;4.23;100.00
7832;BME280;3961;42.058;25.586;2023-01-29T07:18:56;62678.38;;;4.19;100.00
7832;BME280;3961;42.058;25.586;2023-01-29T07:21:22;62691.88;;;4.28;100.00
7832;BME280;3961;42.058;25.586;2023-01-29T07:23:48;62702.19;;;4.37;100.00
7832;BME280;3961;42.058;25.586;2023-01-29T07:26:13;62689.81;;;4.29;100.00
7832;BME280;3961;42.058;25.586;2023-01-29T07:28:40;62664.94;;;4.04;100.00
7832;BME280;3961;42.058;25.586;2023-01-29T07:31:06;62666.91;;;4.09;100.00
7832;BME280;3961;42.058;25.586;2023-01-29T07:33:32;62693.25;;;4.32;100.00
7832;BME280;3961;42.058;25.586;2023-01-29T07:35:57;62703.59;;;4.41;100.00
7832;BME280;3961;42.058;25.586;2023-01-29T07:38:23;62684.78;;;4.20;100.00
7832;BME280;3961;42.058;25.586;2023-01-29T07:40:51;62683.75;;;4.26;100.00
7832;BME280;3961;42.058;25.586;2023-01-29T07:43:16;62681.56;;;4.19;100.00
7832;BME280;3961;42.058;25.586;2023-01-29T07:45:42;62658.88;;;4.01;100.00
7832;BME280;3961;42.058;25.586;2023-01-29T07:48:10;62622.78;;;3.69;100.00
7832;BME280;3961;42.058;25.586;2023-01-29T07:50:37;62608.47;;;3.57;100.00
7832;BME280;3961;42.058;25.586;2023-01-29T07:53:02;62578.91;;;3.33;100.00
7832;BME280;3961;42.058;25.586;2023-01-29T07:55:28;62550.94;;;3.03;100.00
7832;BME280;3961;42.058;25.586;2023-01-29T07:57:55;62570.31;;;3.25;100.00
7832;BME280;3961;42.058;25.586;2023-01-29T08:00:21;62579.25;;;3.31;100.00
7832;BME280;3961;42.058;25.586;2023-01-29T08:02:46;62564.69;;;3.16;100.00
7832;BME280;3961;42.058;25.586;2023-01-29T08:05:12;62581.28;;;3.30;100.00
7832;BME280;3961;42.058;25.586;2023-01-29T08:07:37;62605.59;;;3.54;100.00
7832;BME280;3961;42.058;25.586;2023-01-29T08:10:03;62593.91;;;3.42;100.00
7832;BME280;3961;42.058;25.586;2023-01-29T08:12:28;62627.38;;;3.74;100.00
7832;BME280;3961;42.058;25.586;2023-01-29T08:14:54;62639.41;;;3.84;100.00
7832;BME280;3961;42.058;25.586;2023-01-29T08:17:19;62660.59;;;4.03;100.00
7832;BME280;3961;42.058;25.586;2023-01-29T08:19:45;62670.91;;;4.12;100.00
7832;BME280;3961;42.058;25.586;2023-01-29T08:22:10;62695.00;;;4.33;100.00
7832;BME280;3961;42.058;25.586;2023-01-29T08:24:36;62704.50;;;4.39;100.00
7832;BME280;3961;42.058;25.586;2023-01-29T08:27:02;62712.53;;;4.47;100.00
7832;BME280;3961;42.058;25.586;2023-01-29T08:29:27;62737.75;;;4.69;100.00
7832;BME280;3961;42.058;25.586;2023-01-29T08:31:53;62710.47;;;4.47;100.00
7832;BME280;3961;42.058;25.586;2023-01-29T08:34:18;62706.22;;;4.41;100.00
7832;BME280;3961;42.058;25.586;2023-01-29T08:36:44;62714.75;;;4.53;100.00
7832;BME280;3961;42.058;25.586;2023-01-29T08:39:09;62740.97;;;4.69;100.00
7832;BME280;3961;42.058;25.586;2023-01-29T08:41:35;62727.34;;;4.64;100.00
7832;BME280;3961;42.058;25.586;2023-01-29T08:44:01;62726.84;;;4.59;100.00
7832;BME280;3961;42.058;25.586;2023-01-29T08:46:29;62741.53;;;4.70;100.00
7832;BME280;3961;42.058;25.586;2023-01-29T08:48:54;62728.47;;;4.65;100.00
7832;BME280;3961;42.058;25.586;2023-01-29T08:51:20;62752.34;;;4.84;100.00
7832;BME280;3961;42.058;25.586;2023-01-29T08:53:46;62757.28;;;4.86;100.00
7832;BME280;3961;42.058;25.586;2023-01-29T08:56:11;62748.91;;;4.81;100.00
7832;BME280;3961;42.058;25.586;2023-01-29T08:58:37;62715.31;;;4.54;100.00
7832;BME280;3961;42.058;25.586;2023-01-29T09:01:07;62741.19;;;4.72;100.00
7832;BME280;3961;42.058;25.586;2023-01-29T09:03:32;62767.91;;;4.93;100.00
7832;BME280;3961;42.058;25.586;2023-01-29T09:05:58;62727.44;;;4.60;100.00
7832;BME280;3961;42.058;25.586;2023-01-29T09:08:23;62750.28;;;4.85;100.00
7832;BME280;3961;42.058;25.586;2023-01-29T09:10:49;62730.28;;;4.62;100.00
7832;BME280;3961;42.058;25.586;2023-01-29T09:13:14;62753.16;;;4.87;100.00
7832;BME280;3961;42.058;25.586;2023-01-29T09:15:40;62756.00;;;4.90;100.00
7832;BME280;3961;42.058;25.586;2023-01-29T09:18:05;62748.00;;;4.83;100.00
7832;BME280;3961;42.058;25.586;2023-01-29T09:20:31;62763.09;;;4.87;100.00
7832;BME280;3961;42.058;25.586;2023-01-29T09:22:57;62735.38;;;4.71;100.00
7832;BME280;3961;42.058;25.586;2023-01-29T09:25:23;62742.34;;;4.73;100.00
7832;BME280;3961;42.058;25.586;2023-01-29T09:27:49;62732.03;;;4.64;100.00
7832;BME280;3961;42.058;25.586;2023-01-29T09:30:15;62681.25;;;4.21;100.00
7832;BME280;3961;42.058;25.586;2023-01-29T09:32:41;62703.94;;;4.39;100.00
7832;BME280;3961;42.058;25.586;2023-01-29T09:35:07;62660.28;;;4.05;100.00
7832;BME280;3961;42.058;25.586;2023-01-29T09:37:33;62680.66;;;4.21;100.00
7832;BME280;3961;42.058;25.586;2023-01-29T09:39:58;62678.72;;;4.17;100.00
7832;BME280;3961;42.058;25.586;2023-01-29T09:42:28;62672.06;;;4.13;100.00
7832;BME280;3961;42.058;25.586;2023-01-29T09:45:04;62646.25;;;3.90;100.00
7832;BME280;3961;42.058;25.586;2023-01-29T09:47:35;62677.56;;;4.16;100.00
7832;BME280;3961;42.058;25.586;2023-01-29T09:50:22;62682.38;;;4.22;100.00
7832;BME280;3961;42.058;25.586;2023-01-29T09:52:55;62672.63;;;4.14;100.00
7832;BME280;3961;42.058;25.586;2023-01-29T09:55:27;62659.44;;;4.02;100.00
7832;BME280;3961;42.058;25.586;2023-01-29T09:57:57;62656.91;;;3.97;100.00
7832;BME280;3961;42.058;25.586;2023-01-29T10:00:37;62668.88;;;4.13;100.00
7832;BME280;3961;42.058;25.586;2023-01-29T10:12:10;62711.63;;;4.48;100.00
7832;BME280;3961;42.058;25.586;2023-01-29T10:25:02;62724.81;;;4.60;100.00
7832;BME280;3961;42.058;25.586;2023-01-29T10:27:33;62745.22;;;4.76;100.00
7832;BME280;3961;42.058;25.586;2023-01-29T10:30:06;62716.88;;;4.48;100.00
7832;BME280;3961;42.058;25.586;2023-01-29T10:32:36;62722.63;;;4.53;100.00
7832;BME280;3961;42.058;25.586;2023-01-29T10:35:21;62723.41;;;4.56;100.00
7832;BME280;3961;42.058;25.586;2023-01-29T10:37:47;62712.44;;;4.51;100.00
7832;BME280;3961;42.058;25.586;2023-01-29T10:40:22;62710.81;;;4.45;100.00
7832;BME280;3961;42.058;25.586;2023-01-29T10:42:57;62696.13;;;4.34;100.00
7832;BME280;3961;42.058;25.586;2023-01-29T10:56:42;62818.56;;;5.45;100.00
7832;BME280;3961;42.058;25.586;2023-01-29T11:02:01;62811.44;;;5.36;100.00
7832;BME280;3961;42.058;25.586;2023-01-29T11:04:28;62805.47;;;5.29;100.00
7832;BME280;3961;42.058;25.586;2023-01-29T11:06:56;62828.31;;;5.54;100.00
7832;BME280;3961;42.058;25.586;2023-01-29T11:09:31;62848.75;;;5.69;100.00
7832;BME280;3961;42.058;25.586;2023-01-29T11:12:02;62848.19;;;5.69;100.00
7832;BME280;3961;42.058;25.586;2023-01-29T11:14:50;62837.28;;;5.59;100.00
7832;BME280;3961;42.058;25.586;2023-01-29T11:17:18;62826.94;;;5.50;100.00
7832;BME280;3961;42.058;25.586;2023-01-29T11:19:46;62851.41;;;5.69;100.00
7832;BME280;3961;42.058;25.586;2023-01-29T11:22:20;62826.38;;;5.50;100.00
7832;BME280;3961;42.058;25.586;2023-01-29T11:25:06;62808.00;;;5.33;100.00
7832;BME280;3961;42.058;25.586;2023-01-29T11:27:34;62800.53;;;5.27;100.00
7832;BME280;3961;42.058;25.586;2023-01-29T11:30:04;62793.88;;;5.23;100.00
7832;BME280;3961;42.058;25.586;2023-01-29T11:32:33;62791.22;;;5.12;100.00
7832;BME280;3961;42.058;25.586;2023-01-29T11:35:06;62748.91;;;4.81;100.00
7832;BME280;3961;42.058;25.586;2023-01-29T11:37:44;62736.38;;;4.65;100.00
7832;BME280;3961;42.058;25.586;2023-01-29T11:42:48;62714.25;;;4.48;100.00
7832;BME280;3961;42.058;25.586;2023-01-29T11:45:28;62718.16;;;4.56;100.00
7832;BME280;3961;42.058;25.586;2023-01-29T11:47:57;62762.41;;;4.91;100.00
7832;BME280;3961;42.058;25.586;2023-01-29T11:50:25;62763.56;;;4.92;100.00
7832;BME280;3961;42.058;25.586;2023-01-29T11:52:51;62798.31;;;5.20;100.00
7832;BME280;3961;42.058;25.586;2023-01-29T11:57:45;62800.28;;;5.24;100.00
7832;BME280;3961;42.058;25.586;2023-01-29T12:00:21;62788.16;;;5.18;100.00
7832;BME280;3961;42.058;25.586;2023-01-29T12:05:26;62755.78;;;4.87;100.00
7832;BME280;3961;42.058;25.586;2023-01-29T12:07:54;62750.06;;;4.82;100.00
7832;BME280;3961;42.058;25.586;2023-01-29T12:10:38;62765.28;;;4.93;100.00
7832;BME280;3961;42.058;25.586;2023-01-29T12:15:46;62732.84;;;4.67;100.00
7832;BME280;3961;42.058;25.586;2023-01-29T12:18:30;62730.53;;;4.65;100.00
7832;BME280;3961;42.058;25.586;2023-01-29T12:21:02;62744.66;;;4.75;100.00
7832;BME280;3961;42.058;25.586;2023-01-29T12:23:40;62728.47;;;4.65;100.00
7832;BME280;3961;42.058;25.586;2023-01-29T12:26:14;62726.53;;;4.61;100.00
7832;BME280;3961;42.058;25.586;2023-01-29T12:28:53;62721.03;;;4.59;100.00
7832;BME280;3961;42.058;25.586;2023-01-29T12:34:30;62749.56;;;4.77;100.00
7832;BME280;3961;42.058;25.586;2023-01-29T12:39:55;62734.88;;;4.66;100.00
7832;BME280;3961;42.058;25.586;2023-01-29T12:42:23;62723.41;;;4.56;100.00
7832;BME280;3961;42.058;25.586;2023-01-29T12:45:00;62707.38;;;4.42;100.00
7832;BME280;3961;42.058;25.586;2023-01-29T12:47:54;62719.63;;;4.55;100.00
7832;BME280;3961;42.058;25.586;2023-01-29T12:50:28;62699.56;;;4.37;100.00
7832;BME280;3961;42.058;25.586;2023-01-29T12:53:14;62698.44;;;4.36;100.00
7832;BME280;3961;42.058;25.586;2023-01-29T12:55:49;62678.13;;;4.16;100.00
7832;BME280;3961;42.058;25.586;2023-01-29T12:58:29;62697.03;;;4.33;100.00
7832;BME280;3961;42.058;25.586;2023-01-29T13:01:02;62692.44;;;4.29;100.00
7832;BME280;3961;42.058;25.586;2023-01-29T13:03:40;62708.19;;;4.45;100.00
7832;BME280;3961;42.058;25.586;2023-01-29T13:06:16;62709.34;;;4.46;100.00
7832;BME280;3961;42.058;25.586;2023-01-29T13:09:11;62703.03;;;4.41;100.00
7832;BME280;3961;42.058;25.586;2023-01-29T13:11:42;62712.19;;;4.49;100.00
7832;BME280;3961;42.058;25.586;2023-01-29T13:14:25;62706.22;;;4.41;100.00
7832;BME280;3961;42.058;25.586;2023-01-29T13:17:13;62698.75;;;4.34;100.00
7832;BME280;3961;42.058;25.586;2023-01-29T13:19:44;62715.63;;;4.52;100.00
7832;BME280;3961;42.058;25.586;2023-01-29T13:22:25;62750.63;;;4.83;100.00
7832;BME280;3961;42.058;25.586;2023-01-29T13:24:51;62733.75;;;4.65;100.00
7832;BME280;3961;42.058;25.586;2023-01-29T13:27:24;62753.50;;;4.85;100.00
7832;BME280;3961;42.058;25.586;2023-01-29T13:29:50;62749.47;;;4.82;100.00
7832;BME280;3961;42.058;25.586;2023-01-29T13:32:22;62756.91;;;4.88;100.00
7832;BME280;3961;42.058;25.586;2023-01-29T13:34:50;62776.78;;;5.03;100.00
7832;BME280;3961;42.058;25.586;2023-01-29T13:37:26;62762.41;;;4.91;100.00
7832;BME280;3961;42.058;25.586;2023-01-29T13:39:56;62765.53;;;4.96;100.00
7832;BME280;3961;42.058;25.586;2023-01-29T13:44:55;62779.31;;;5.08;100.00
7832;BME280;3961;42.058;25.586;2023-01-29T13:47:33;62769.31;;;4.97;100.00
7832;BME280;3961;42.058;25.586;2023-01-29T13:50:07;62761.84;;;4.90;100.00
7832;BME280;3961;42.058;25.586;2023-01-29T13:52:44;62748.00;;;4.83;100.00
7832;BME280;3961;42.058;25.586;2023-01-29T14:10:40;62717.38;;;4.53;100.00
7832;BME280;3961;42.058;25.586;2023-01-29T14:21:21;62674.59;;;4.18;100.00
7832;BME280;3961;42.058;25.586;2023-01-29T14:23:53;62693.59;;;4.30;100.00
7832;BME280;3961;42.058;25.586;2023-01-29T14:34:30;62707.59;;;4.45;100.00
7832;BME280;3961;42.058;25.586;2023-01-29T14:37:22;62717.69;;;4.51;100.00
7832;BME280;3961;42.058;25.586;2023-01-29T14:39:51;62708.19;;;4.45;100.00
7832;BME280;3961;42.058;25.586;2023-01-29T14:42:28;62688.44;;;4.25;100.00
7832;BME280;3961;42.058;25.586;2023-01-29T14:47:24;62679.53;;;4.20;100.00
7832;BME280;3961;42.058;25.586;2023-01-29T14:56:10;62660.94;;;4.01;100.00
7832;BME280;3961;42.058;25.586;2023-01-29T14:58:54;62681.00;;;4.19;100.00
7832;BME280;3961;42.058;25.586;2023-01-29T15:01:25;62673.78;;;4.15;100.00
7832;BME280;3961;42.058;25.586;2023-01-29T15:04:03;62685.47;;;4.27;100.00
7832;BME280;3961;42.058;25.586;2023-01-29T15:12:02;62689.81;;;4.29;100.00
7832;BME280;3961;42.058;25.586;2023-01-29T15:14:36;62695.00;;;4.33;100.00
7832;BME280;3961;42.058;25.586;2023-01-29T15:20:34;62690.50;;;4.25;100.00
7832;BME280;3961;42.058;25.586;2023-01-29T15:23:01;62684.44;;;4.22;100.00
7832;BME280;3961;42.058;25.586;2023-01-29T15:25:46;62682.38;;;4.22;100.00
7832;BME280;3961;42.058;25.586;2023-01-29T15:28:12;62649.13;;;3.93;100.00
7832;BME280;3961;42.058;25.586;2023-01-29T15:30:37;62688.69;;;4.28;100.00
7832;BME280;3961;42.058;25.586;2023-01-29T15:33:07;62664.38;;;4.04;100.00
7832;BME280;3961;42.058;25.586;2023-01-29T15:35:39;62638.25;;;3.83;100.00
7832;BME280;3961;42.058;25.586;2023-01-29T15:38:14;62660.34;;;4.00;100.00
7832;BME280;3961;42.058;25.586;2023-01-29T15:40:40;62632.78;;;3.81;100.00
7832;BME280;3961;42.058;25.586;2023-01-29T15:43:41;62662.66;;;4.02;100.00
7832;BME280;3961;42.058;25.586;2023-01-29T15:48:42;62689.91;;;4.24;100.00